createdAt,value
2022-08-02T00:01:22.305Z,2.50
2022-08-02T00:03:51.935Z,2.87
2022-08-02T00:06:21.006Z,2.97
2022-08-02T00:08:49.253Z,2.70
2022-08-02T00:11:17.483Z,3.17
2022-08-02T00:13:45.796Z,2.93
2022-08-02T00:16:16.713Z,2.90
2022-08-02T00:18:45.669Z,2.73
2022-08-02T00:21:16.064Z,2.90
2022-08-02T00:24:27.487Z,2.93
2022-08-02T00:26:33.138Z,2.43
2022-08-02T00:29:01.385Z,2.70
2022-08-02T00:31:29.605Z,2.60
2022-08-02T00:34:05.649Z,2.80
2022-08-02T00:36:47.382Z,2.70
2022-08-02T00:39:34.415Z,2.73
2022-08-02T00:42:03.807Z,2.70
2022-08-02T00:44:32.165Z,3.03
2022-08-02T00:47:00.431Z,2.97
2022-08-02T00:49:29.170Z,2.63
2022-08-02T00:51:58.789Z,2.70
2022-08-02T00:54:27.023Z,2.70
2022-08-02T00:56:55.278Z,2.70
2022-08-02T00:59:23.642Z,2.77
2022-08-02T01:01:55.811Z,2.57
2022-08-02T01:04:30.924Z,2.47
2022-08-02T01:07:04.021Z,2.70
2022-08-02T01:09:42.133Z,2.93
2022-08-02T01:12:10.892Z,2.80
2022-08-02T01:14:39.720Z,3.30
2022-08-02T01:17:09.173Z,3.10
2022-08-02T01:19:39.845Z,2.70
2022-08-02T01:22:18.314Z,2.73
2022-08-02T01:24:57.788Z,3.50
2022-08-02T01:27:31.719Z,2.80
2022-08-02T01:30:02.639Z,3.10
2022-08-02T01:32:33.615Z,2.97
2022-08-02T01:35:03.128Z,3.20
2022-08-02T01:37:34.107Z,2.93
2022-08-02T01:40:04.436Z,3.87
2022-08-02T01:42:33.243Z,3.00
2022-08-02T01:45:03.371Z,3.23
2022-08-02T01:47:33.094Z,3.30
2022-08-02T01:50:02.286Z,3.07
2022-08-02T01:52:31.781Z,3.23
2022-08-02T01:55:02.609Z,3.00
2022-08-02T01:57:33.529Z,3.20
2022-08-02T02:00:11.586Z,3.30
2022-08-02T02:02:41.897Z,3.00
2022-08-02T02:05:13.165Z,2.87
2022-08-02T02:07:42.283Z,2.97
2022-08-02T02:10:11.632Z,3.33
2022-08-02T02:12:41.388Z,3.07
2022-08-02T02:15:12.466Z,2.90
2022-08-02T02:17:50.715Z,2.90
2022-08-02T02:20:29.983Z,3.10
2022-08-02T02:22:58.297Z,2.97
2022-08-02T02:25:29.368Z,2.73
2022-08-02T02:28:05.574Z,2.57
2022-08-02T02:30:35.514Z,3.10
2022-08-02T02:33:04.439Z,3.00
2022-08-02T02:35:37.451Z,3.17
2022-08-02T02:38:06.685Z,3.57
2022-08-02T02:40:35.439Z,3.00
2022-08-02T02:43:03.969Z,3.60
2022-08-02T02:45:32.591Z,4.20
2022-08-02T02:48:03.005Z,3.50
2022-08-02T02:50:32.085Z,3.47
2022-08-02T02:53:00.952Z,3.73
2022-08-02T02:55:29.488Z,3.27
2022-08-02T02:57:58.769Z,3.00
2022-08-02T03:00:41.261Z,3.50
2022-08-02T03:03:11.322Z,3.50
2022-08-02T03:05:39.550Z,3.33
2022-08-02T03:08:07.879Z,3.50
2022-08-02T03:10:36.400Z,3.50
2022-08-02T03:13:04.756Z,3.57
2022-08-02T03:15:33.338Z,3.60
2022-08-02T03:18:01.590Z,3.77
2022-08-02T03:20:31.296Z,3.80
2022-08-02T03:22:59.572Z,3.33
2022-08-02T03:25:27.807Z,3.27
2022-08-02T03:27:56.020Z,3.43
2022-08-02T03:30:27.585Z,2.90
2022-08-02T03:32:55.856Z,3.40
2022-08-02T03:35:24.664Z,3.10
2022-08-02T03:37:55.848Z,3.07
2022-08-02T03:40:24.416Z,3.13
2022-08-02T03:42:52.732Z,3.20
2022-08-02T03:45:21.600Z,3.10
2022-08-02T03:47:49.953Z,3.37
2022-08-02T03:50:18.286Z,3.37
2022-08-02T03:52:46.906Z,9.03
2022-08-02T03:55:16.618Z,4.00
2022-08-02T03:57:44.974Z,4.63
2022-08-02T04:00:14.301Z,3.90
2022-08-02T04:02:42.582Z,4.90
2022-08-02T04:05:10.985Z,4.30
2022-08-02T04:08:33.787Z,4.00
2022-08-02T04:10:28.842Z,3.90
2022-08-02T04:12:57.162Z,4.37
2022-08-02T04:15:25.844Z,4.00
2022-08-02T04:17:57.301Z,4.33
2022-08-02T04:20:29.446Z,4.10
2022-08-02T04:23:00.246Z,3.87
2022-08-02T04:25:35.785Z,4.40
2022-08-02T04:28:17.239Z,4.30
2022-08-02T04:30:47.298Z,4.17
2022-08-02T04:33:16.048Z,4.30
2022-08-02T04:35:44.580Z,4.60
2022-08-02T04:38:14.256Z,4.67
2022-08-02T04:40:51.772Z,5.03
2022-08-02T04:43:20.080Z,4.70
2022-08-02T04:45:50.164Z,4.47
2022-08-02T04:48:18.426Z,5.40
2022-08-02T04:50:46.705Z,5.97
2022-08-02T04:53:14.985Z,5.70
2022-08-02T04:55:44.589Z,4.83
2022-08-02T04:58:38.719Z,4.90
2022-08-02T05:01:01.181Z,5.40
2022-08-02T05:03:29.480Z,4.90
2022-08-02T05:05:57.709Z,5.53
2022-08-02T05:08:25.966Z,5.23
2022-08-02T05:10:55.571Z,5.33
2022-08-02T05:13:23.785Z,5.00
2022-08-02T05:15:52.010Z,5.10
2022-08-02T05:18:20.479Z,5.20
2022-08-02T05:20:48.747Z,5.10
2022-08-02T05:23:17.022Z,5.57
2022-08-02T05:25:45.264Z,5.10
2022-08-02T05:28:14.849Z,5.03
2022-08-02T05:30:43.078Z,5.90
2022-08-02T05:33:11.897Z,5.30
2022-08-02T05:35:40.257Z,5.20
2022-08-02T05:38:09.950Z,4.87
2022-08-02T05:40:54.713Z,4.63
2022-08-02T05:43:24.753Z,5.40
2022-08-02T05:45:54.535Z,5.50
2022-08-02T05:48:26.381Z,4.90
2022-08-02T05:51:01.253Z,5.53
2022-08-02T05:53:34.665Z,5.00
2022-08-02T05:56:08.767Z,5.63
2022-08-02T05:58:42.412Z,5.43
2022-08-02T06:01:43.752Z,5.00
2022-08-02T06:04:12.957Z,5.07
2022-08-02T06:06:45.053Z,5.20
2022-08-02T06:09:23.048Z,5.53
2022-08-02T06:12:02.589Z,4.77
2022-08-02T06:14:34.316Z,5.27
2022-08-02T06:17:03.699Z,5.20
2022-08-02T06:19:36.576Z,5.70
2022-08-02T06:22:35.386Z,4.93
2022-08-02T06:25:11.772Z,5.40
2022-08-02T06:27:56.861Z,5.90
2022-08-02T06:30:26.684Z,5.70
2022-08-02T06:32:55.073Z,5.40
2022-08-02T06:35:23.994Z,6.00
2022-08-02T06:37:58.630Z,6.25
2022-08-02T06:40:28.781Z,5.60
2022-08-02T06:43:01.195Z,6.40
2022-08-02T06:45:30.965Z,6.00
2022-08-02T06:47:59.195Z,6.10
2022-08-02T06:50:27.457Z,6.05
2022-08-02T06:52:55.769Z,6.10
2022-08-02T06:55:24.168Z,5.90
2022-08-02T06:57:53.781Z,6.40
2022-08-02T07:00:22.205Z,6.13
2022-08-02T07:02:52.473Z,6.47
2022-08-02T07:05:20.860Z,6.13
2022-08-02T07:07:49.134Z,28.58
2022-08-02T07:10:17.673Z,6.22
2022-08-02T07:12:45.898Z,5.20
2022-08-02T07:15:14.203Z,5.82
2022-08-02T07:17:42.470Z,6.18
2022-08-02T07:20:13.476Z,6.65
2022-08-02T07:22:41.773Z,6.15
2022-08-02T07:25:10.567Z,6.38
2022-08-02T07:27:38.788Z,6.28
2022-08-02T07:30:07.763Z,6.93
2022-08-02T07:32:36.099Z,6.43
2022-08-02T07:35:06.928Z,5.82
2022-08-02T07:37:55.339Z,6.28
2022-08-02T07:40:27.072Z,6.43
2022-08-02T07:43:02.782Z,6.68
2022-08-02T07:45:32.957Z,6.15
2022-08-02T07:48:04.844Z,6.75
2022-08-02T07:50:33.482Z,6.53
2022-08-02T07:53:04.182Z,6.32
2022-08-02T07:55:40.012Z,5.90
2022-08-02T07:58:12.014Z,6.47
2022-08-02T08:00:41.981Z,6.38
2022-08-02T08:03:10.326Z,6.47
2022-08-02T08:05:38.638Z,6.05
2022-08-02T08:08:11.234Z,5.68
2022-08-02T08:10:44.382Z,5.80
2022-08-02T08:13:13.025Z,5.05
2022-08-02T08:15:41.859Z,5.32
2022-08-02T08:18:20.291Z,5.10
2022-08-02T08:20:49.148Z,4.18
2022-08-02T08:23:19.005Z,4.15
2022-08-02T08:25:47.480Z,4.80
2022-08-02T08:28:15.926Z,4.55
2022-08-02T08:30:44.870Z,4.53
2022-08-02T08:33:13.210Z,4.60
2022-08-02T08:35:41.624Z,3.85
2022-08-02T08:38:10.329Z,4.07
2022-08-02T08:40:42.522Z,3.80
2022-08-02T08:43:11.946Z,4.10
2022-08-02T08:45:40.405Z,3.80
2022-08-02T08:48:13.815Z,3.58
2022-08-02T08:50:46.172Z,3.75
2022-08-02T08:53:15.755Z,3.10
2022-08-02T08:55:45.812Z,2.75
2022-08-02T08:58:15.258Z,3.10
2022-08-02T09:00:43.738Z,3.30
2022-08-02T09:03:12.400Z,3.22
2022-08-02T09:05:41.784Z,3.50
2022-08-02T09:08:16.349Z,3.10
2022-08-02T09:10:47.473Z,3.10
2022-08-02T09:13:37.857Z,2.60
2022-08-02T09:16:12.731Z,2.70
2022-08-02T09:18:43.738Z,2.70
2022-08-02T09:21:12.777Z,3.08
2022-08-02T09:23:42.074Z,3.40
2022-08-02T09:26:12.497Z,3.08
2022-08-02T09:28:42.146Z,3.42
2022-08-02T09:31:11.347Z,2.40
2022-08-02T09:33:40.486Z,2.70
2022-08-02T09:36:09.827Z,2.53
2022-08-02T09:38:38.596Z,2.70
2022-08-02T09:41:07.323Z,3.53
2022-08-02T09:44:03.157Z,2.40
2022-08-02T09:46:30.855Z,2.58
2022-08-02T09:49:00.898Z,2.92
2022-08-02T09:51:29.810Z,2.80
2022-08-02T09:54:07.981Z,2.88
2022-08-02T09:56:47.983Z,2.75
2022-08-02T09:59:18.342Z,2.45
2022-08-02T10:01:51.614Z,2.40
2022-08-02T10:04:31.488Z,2.60
2022-08-02T10:07:03.742Z,2.10
2022-08-02T10:09:32.413Z,2.45
2022-08-02T10:12:01.306Z,2.28
2022-08-02T10:14:31.002Z,2.55
2022-08-02T10:16:59.526Z,2.50
2022-08-02T10:20:00.976Z,2.58
2022-08-02T10:22:17.002Z,2.42
2022-08-02T10:24:48.844Z,2.75
2022-08-02T10:27:19.775Z,2.85
2022-08-02T10:29:53.595Z,2.95
2022-08-02T10:32:25.832Z,3.30
2022-08-02T10:34:56.051Z,2.75
2022-08-02T10:37:30.261Z,2.58
2022-08-02T10:39:59.049Z,2.50
2022-08-02T10:42:46.864Z,2.53
2022-08-02T10:45:17.723Z,2.83
2022-08-02T10:47:58.708Z,2.95
2022-08-02T10:50:41.833Z,3.40
2022-08-02T10:53:26.726Z,2.92
2022-08-02T10:55:55.607Z,3.42
2022-08-02T10:58:26.305Z,3.20
2022-08-02T11:00:59.962Z,2.92
2022-08-02T11:03:41.701Z,3.42
2022-08-02T11:06:25.549Z,3.17
2022-08-02T11:09:09.485Z,2.38
2022-08-02T11:11:57.845Z,2.45
2022-08-02T11:14:26.792Z,2.70
2022-08-02T11:17:15.735Z,3.08
2022-08-02T11:20:03.551Z,2.67
2022-08-02T11:22:31.922Z,2.60
2022-08-02T11:25:20.289Z,2.70
2022-08-02T11:27:48.602Z,2.70
2022-08-02T11:30:17.199Z,3.60
2022-08-02T11:32:47.259Z,2.90
2022-08-02T11:35:15.701Z,3.33
2022-08-02T11:37:44.659Z,3.50
2022-08-02T11:40:19.285Z,3.10
2022-08-02T11:42:50.412Z,2.75
2022-08-02T11:45:21.035Z,3.40
2022-08-02T11:47:52.438Z,3.00
2022-08-02T11:50:29.832Z,3.00
2022-08-02T11:52:58.865Z,2.80
2022-08-02T11:55:29.111Z,2.92
2022-08-02T11:58:03.624Z,2.70
2022-08-02T12:00:33.291Z,2.80
2022-08-02T12:03:03.139Z,2.70
2022-08-02T12:06:04.765Z,2.45
2022-08-02T12:08:22.430Z,2.45
2022-08-02T12:10:54.119Z,2.80
2022-08-02T12:13:22.502Z,2.60
2022-08-02T12:15:50.915Z,2.63
2022-08-02T12:18:40.228Z,2.30
2022-08-02T12:21:23.099Z,2.50
2022-08-02T12:23:57.067Z,2.00
2022-08-02T12:26:29.749Z,2.40
2022-08-02T12:28:58.783Z,2.63
2022-08-02T12:31:56.744Z,2.75
2022-08-02T12:34:31.360Z,2.47
2022-08-02T12:37:04.956Z,2.63
2022-08-02T12:39:43.382Z,2.63
2022-08-02T12:42:12.467Z,2.53
2022-08-02T12:44:51.483Z,2.60
2022-08-02T12:47:21.526Z,2.65
2022-08-02T12:50:11.449Z,2.60
2022-08-02T12:52:39.772Z,2.30
2022-08-02T12:55:16.653Z,2.40
2022-08-02T12:57:52.860Z,2.10
2022-08-02T13:00:25.060Z,2.30
2022-08-02T13:02:53.372Z,2.00
2022-08-02T13:05:23.155Z,2.10
2022-08-02T13:07:51.701Z,2.45
2022-08-02T13:10:20.495Z,2.45
2022-08-02T13:12:48.961Z,2.40
2022-08-02T13:15:49.724Z,2.20
2022-08-02T13:18:06.393Z,2.22
2022-08-02T13:20:38.198Z,2.55
2022-08-02T13:23:14.178Z,2.33
2022-08-02T13:25:52.590Z,2.33
2022-08-02T13:28:21.512Z,2.22
2022-08-02T13:30:49.989Z,2.10
2022-08-02T13:33:18.589Z,2.50
2022-08-02T13:35:48.915Z,2.38
2022-08-02T13:38:19.846Z,2.50
2022-08-02T13:41:09.952Z,2.22
2022-08-02T13:43:52.891Z,1.85
2022-08-02T13:46:29.188Z,2.13
2022-08-02T13:48:58.087Z,2.50
2022-08-02T13:51:27.831Z,2.10
2022-08-02T13:53:56.133Z,2.50
2022-08-02T13:56:35.785Z,2.10
2022-08-02T13:59:55.197Z,2.25
2022-08-02T14:01:52.911Z,2.00
2022-08-02T14:04:21.378Z,2.10
2022-08-02T14:06:51.088Z,2.22
2022-08-02T14:09:19.423Z,2.22
2022-08-02T14:11:47.997Z,2.03
2022-08-02T14:14:17.511Z,2.10
2022-08-02T14:16:45.998Z,2.30
2022-08-02T14:19:15.478Z,2.30
2022-08-02T14:21:46.633Z,2.33
2022-08-02T14:24:18.043Z,2.17
2022-08-02T14:26:46.532Z,2.08
2022-08-02T14:29:14.979Z,1.95
2022-08-02T14:31:45.014Z,2.03
2022-08-02T14:34:13.648Z,2.00
2022-08-02T14:36:42.102Z,2.22
2022-08-02T14:39:10.885Z,2.20
2022-08-02T14:41:58.360Z,2.00
2022-08-02T14:44:28.638Z,1.80
2022-08-02T14:46:57.176Z,2.10
2022-08-02T14:49:26.892Z,2.30
2022-08-02T14:51:55.631Z,2.13
2022-08-02T14:54:28.120Z,2.10
2022-08-02T14:57:01.682Z,2.00
2022-08-02T14:59:30.114Z,1.77
2022-08-02T15:01:58.708Z,1.90
2022-08-02T15:04:27.378Z,2.22
2022-08-02T15:06:55.670Z,1.92
2022-08-02T15:09:24.112Z,2.25
2022-08-02T15:11:52.374Z,1.73
2022-08-02T15:14:26.266Z,2.00
2022-08-02T15:16:57.461Z,2.15
2022-08-02T15:19:44.277Z,2.10
2022-08-02T15:22:16.223Z,2.20
2022-08-02T15:24:45.783Z,2.05
2022-08-02T15:27:14.900Z,1.90
2022-08-02T15:29:45.826Z,2.08
2022-08-02T15:32:14.746Z,2.30
2022-08-02T15:34:43.251Z,1.90
2022-08-02T15:37:11.613Z,2.00
2022-08-02T15:39:40.060Z,2.17
2022-08-02T15:42:08.631Z,1.85
2022-08-02T15:44:37.051Z,2.20
2022-08-02T15:47:09.036Z,2.10
2022-08-02T15:49:41.246Z,2.10
2022-08-02T15:52:11.169Z,1.80
2022-08-02T15:54:39.754Z,2.00
2022-08-02T15:57:08.230Z,1.88
2022-08-02T15:59:36.726Z,2.10
2022-08-02T16:02:06.832Z,2.00
2022-08-02T16:04:36.910Z,1.95
2022-08-02T16:07:05.377Z,1.98
2022-08-02T16:09:33.709Z,1.90
2022-08-02T16:12:02.163Z,2.10
2022-08-02T16:14:30.601Z,2.00
2022-08-02T16:16:58.890Z,1.90
2022-08-02T16:19:37.474Z,1.77
2022-08-02T16:22:17.880Z,1.90
2022-08-02T16:24:46.391Z,1.90
2022-08-02T16:27:17.975Z,1.63
2022-08-02T16:29:48.525Z,1.77
2022-08-02T16:32:17.201Z,1.73
2022-08-02T16:35:07.799Z,1.80
2022-08-02T16:37:51.901Z,1.80
2022-08-02T16:40:21.381Z,2.00
2022-08-02T16:42:50.542Z,2.00
2022-08-02T16:45:38.125Z,2.10
2022-08-02T16:48:07.739Z,2.03
2022-08-02T16:50:37.746Z,2.00
2022-08-02T16:53:07.881Z,2.00
2022-08-02T16:55:36.626Z,1.60
2022-08-02T16:58:09.732Z,1.48
2022-08-02T17:00:46.489Z,2.00
2022-08-02T17:03:16.228Z,1.42
2022-08-02T17:05:56.949Z,1.80
2022-08-02T17:08:34.667Z,1.60
2022-08-02T17:11:04.076Z,1.60
2022-08-02T17:13:34.422Z,1.70
2022-08-02T17:16:25.419Z,1.77
2022-08-02T17:18:56.306Z,1.50
2022-08-02T17:21:24.805Z,1.70
2022-08-02T17:24:05.153Z,1.80
2022-08-02T17:26:42.850Z,1.80
2022-08-02T17:29:16.015Z,1.60
2022-08-02T17:32:05.326Z,1.80
2022-08-02T17:34:35.053Z,1.60
2022-08-02T17:37:06.040Z,1.52
2022-08-02T17:39:44.271Z,1.55
2022-08-02T17:42:20.214Z,1.63
2022-08-02T17:44:52.473Z,1.70
2022-08-02T17:47:20.861Z,1.50
2022-08-02T17:49:50.235Z,1.60
2022-08-02T17:52:51.953Z,1.75
2022-08-02T17:55:14.185Z,1.80
2022-08-02T17:57:57.619Z,1.92
2022-08-02T18:00:34.963Z,2.00
2022-08-02T18:03:05.750Z,2.20
2022-08-02T18:05:40.347Z,2.00
2022-08-02T18:08:22.867Z,2.00
2022-08-02T18:10:53.521Z,2.08
2022-08-02T18:13:21.994Z,2.05
2022-08-02T18:15:52.268Z,2.30
2022-08-02T18:18:29.979Z,1.80
2022-08-02T18:21:15.339Z,2.00
2022-08-02T18:23:49.372Z,1.70
2022-08-02T18:26:37.283Z,1.90
2022-08-02T18:29:06.356Z,1.95
2022-08-02T18:31:39.521Z,1.90
2022-08-02T18:34:08.467Z,2.10
2022-08-02T18:36:47.044Z,1.83
2022-08-02T18:39:16.272Z,1.50
2022-08-02T18:41:47.762Z,1.60
2022-08-02T18:44:18.946Z,2.05
2022-08-02T18:46:50.360Z,1.70
2022-08-02T18:49:19.770Z,1.83
2022-08-02T18:51:48.103Z,2.40
2022-08-02T18:54:16.740Z,2.00
2022-08-02T18:57:00.419Z,2.45
2022-08-02T18:59:28.823Z,1.95
2022-08-02T19:02:08.440Z,2.05
2022-08-02T19:04:37.830Z,2.00
2022-08-02T19:07:08.047Z,1.80
2022-08-02T19:09:39.843Z,1.90
2022-08-02T19:12:11.458Z,2.15
2022-08-02T19:14:40.215Z,2.20
2022-08-02T19:17:15.965Z,2.00
2022-08-02T19:19:56.884Z,1.70
2022-08-02T19:22:25.334Z,1.77
2022-08-02T19:24:59.114Z,1.85
2022-08-02T19:27:32.848Z,1.80
2022-08-02T19:30:03.989Z,1.90
2022-08-02T19:32:42.208Z,2.13
2022-08-02T19:35:30.604Z,2.03
2022-08-02T19:38:07.722Z,2.42
2022-08-02T19:40:37.187Z,2.15
2022-08-02T19:44:27.374Z,2.00
2022-08-02T19:45:56.759Z,2.03
2022-08-02T19:48:27.292Z,2.30
2022-08-02T19:51:01.063Z,2.15
2022-08-02T19:53:46.486Z,2.38
2022-08-02T19:56:20.595Z,2.22
2022-08-02T19:58:52.005Z,2.17
2022-08-02T20:01:25.277Z,2.33
2022-08-02T20:03:56.682Z,2.30
2022-08-02T20:06:29.988Z,2.22
2022-08-02T20:09:01.330Z,2.30
2022-08-02T20:11:34.742Z,2.30
2022-08-02T20:14:05.643Z,2.72
2022-08-02T20:16:34.158Z,2.60
2022-08-02T20:19:02.834Z,2.80
2022-08-02T20:21:35.417Z,2.60
2022-08-02T20:24:05.695Z,2.65
2022-08-02T20:26:35.453Z,2.30
2022-08-02T20:29:05.701Z,2.38
2022-08-02T20:31:36.307Z,2.33
2022-08-02T20:34:07.290Z,1.98
2022-08-02T20:36:35.663Z,2.22
2022-08-02T20:39:04.047Z,2.35
2022-08-02T20:41:36.826Z,2.28
2022-08-02T20:44:30.851Z,2.30
2022-08-02T20:47:03.680Z,2.33
2022-08-02T20:49:40.895Z,2.95
2022-08-02T20:52:23.775Z,2.15
2022-08-02T20:54:53.631Z,2.60
2022-08-02T20:57:48.970Z,2.10
2022-08-02T21:00:12.357Z,2.17
2022-08-02T21:02:40.651Z,2.50
2022-08-02T21:05:17.351Z,2.67
2022-08-02T21:07:47.535Z,3.35
2022-08-02T21:10:16.268Z,3.17
2022-08-02T21:12:45.237Z,2.90
2022-08-02T21:15:15.166Z,2.70
2022-08-02T21:17:47.262Z,2.67
2022-08-02T21:20:29.240Z,2.78
2022-08-02T21:22:58.155Z,2.60
2022-08-02T21:25:42.812Z,2.75
2022-08-02T21:28:17.442Z,2.45
2022-08-02T21:30:47.517Z,2.63
2022-08-02T21:33:22.408Z,2.30
2022-08-02T21:35:52.233Z,2.58
2022-08-02T21:38:36.209Z,2.10
2022-08-02T21:41:11.114Z,2.40
2022-08-02T21:43:40.562Z,2.50
2022-08-02T21:46:14.608Z,2.50
2022-08-02T21:48:43.239Z,2.50
2022-08-02T21:51:15.941Z,3.53
2022-08-02T21:54:18.574Z,4.07
2022-08-02T21:56:32.897Z,4.03
2022-08-02T21:59:04.766Z,4.07
2022-08-02T22:01:52.938Z,4.03
2022-08-02T22:04:21.972Z,3.72
2022-08-02T22:06:50.425Z,3.63
2022-08-02T22:09:43.655Z,3.20
2022-08-02T22:14:56.877Z,3.00
2022-08-02T22:17:51.270Z,3.40
2022-08-02T22:20:19.756Z,3.13
2022-08-02T22:22:50.608Z,2.90
2022-08-02T22:25:26.996Z,3.10
2022-08-02T22:28:36.023Z,3.50
2022-08-02T22:30:54.857Z,2.78
2022-08-02T22:33:47.197Z,2.50
2022-08-02T22:36:29.971Z,2.80
2022-08-02T22:38:58.269Z,2.80
2022-08-02T22:42:05.180Z,2.80
2022-08-02T22:44:16.849Z,2.78
2022-08-02T22:46:46.982Z,2.58
2022-08-02T22:49:38.151Z,2.38
2022-08-02T22:52:10.632Z,2.78
2022-08-02T22:54:39.188Z,2.65
2022-08-02T22:57:11.083Z,2.58
2022-08-02T22:59:10.288Z,3.17
2022-08-02T22:59:40.811Z,2.78
2022-08-02T23:02:09.660Z,2.70
2022-08-02T23:04:39.574Z,2.90
2022-08-02T23:07:08.039Z,2.80
2022-08-02T23:09:36.325Z,2.80
2022-08-02T23:12:04.706Z,2.42
2022-08-02T23:14:32.930Z,2.42
2022-08-02T23:17:18.627Z,2.63
2022-08-02T23:19:54.195Z,2.40
2022-08-02T23:22:29.145Z,2.40
2022-08-02T23:24:58.682Z,2.80
2022-08-02T23:27:27.268Z,3.10
2022-08-02T23:29:55.654Z,2.75
2022-08-02T23:32:25.669Z,2.67
2022-08-02T23:34:55.927Z,2.60
2022-08-02T23:37:24.316Z,2.05
2022-08-02T23:39:52.682Z,2.67
2022-08-02T23:42:21.019Z,2.25
2022-08-02T23:44:49.291Z,2.33
2022-08-02T23:47:17.927Z,2.58
2022-08-02T23:49:46.283Z,2.50
2022-08-02T23:52:16.164Z,2.67
2022-08-02T23:54:44.593Z,2.58
2022-08-02T23:57:20.882Z,2.30
2022-08-02T23:59:49.994Z,2.50
